sensor_id;sensor_type;location;lat;lon;timestamp;P1;durP1;ratioP1;P2;durP2;ratioP2
73428;SDS011;61643;49.564;17.412;2023-03-21T00:00:55;58.95;;;33.47;;
73428;SDS011;61643;49.564;17.412;2023-03-21T00:05:49;58.08;;;34.47;;
73428;SDS011;61643;49.564;17.412;2023-03-21T00:08:18;54.15;;;30.23;;
73428;SDS011;61643;49.564;17.412;2023-03-21T00:10:45;49.60;;;29.38;;
73428;SDS011;61643;49.564;17.412;2023-03-21T00:13:12;43.22;;;25.17;;
73428;SDS011;61643;49.564;17.412;2023-03-21T00:15:39;28.15;;;16.60;;
73428;SDS011;61643;49.564;17.412;2023-03-21T00:18:15;30.98;;;19.30;;
73428;SDS011;61643;49.564;17.412;2023-03-21T00:20:41;35.50;;;21.35;;
73428;SDS011;61643;49.564;17.412;2023-03-21T00:23:11;35.28;;;20.27;;
73428;SDS011;61643;49.564;17.412;2023-03-21T00:25:37;31.08;;;19.02;;
73428;SDS011;61643;49.564;17.412;2023-03-21T00:28:03;28.05;;;16.38;;
73428;SDS011;61643;49.564;17.412;2023-03-21T00:30:29;33.80;;;16.20;;
73428;SDS011;61643;49.564;17.412;2023-03-21T00:32:55;28.52;;;15.60;;
73428;SDS011;61643;49.564;17.412;2023-03-21T00:35:20;22.52;;;13.63;;
73428;SDS011;61643;49.564;17.412;2023-03-21T00:37:46;23.65;;;14.88;;
73428;SDS011;61643;49.564;17.412;2023-03-21T00:40:12;23.98;;;14.25;;
73428;SDS011;61643;49.564;17.412;2023-03-21T00:42:39;21.27;;;12.38;;
73428;SDS011;61643;49.564;17.412;2023-03-21T00:45:05;18.33;;;11.98;;
73428;SDS011;61643;49.564;17.412;2023-03-21T00:47:35;23.15;;;12.88;;
73428;SDS011;61643;49.564;17.412;2023-03-21T00:50:01;26.25;;;15.35;;
73428;SDS011;61643;49.564;17.412;2023-03-21T00:52:27;27.23;;;17.63;;
73428;SDS011;61643;49.564;17.412;2023-03-21T00:54:52;30.67;;;18.75;;
73428;SDS011;61643;49.564;17.412;2023-03-21T00:57:18;21.67;;;12.88;;
73428;SDS011;61643;49.564;17.412;2023-03-21T00:59:44;15.80;;;9.48;;
73428;SDS011;61643;49.564;17.412;2023-03-21T01:02:10;16.48;;;8.88;;
73428;SDS011;61643;49.564;17.412;2023-03-21T01:04:39;12.95;;;8.35;;
73428;SDS011;61643;49.564;17.412;2023-03-21T01:07:05;14.82;;;8.23;;
73428;SDS011;61643;49.564;17.412;2023-03-21T01:09:31;13.85;;;7.60;;
73428;SDS011;61643;49.564;17.412;2023-03-21T01:11:57;16.60;;;8.85;;
73428;SDS011;61643;49.564;17.412;2023-03-21T01:14:23;14.35;;;7.82;;
73428;SDS011;61643;49.564;17.412;2023-03-21T01:16:50;14.02;;;8.63;;
73428;SDS011;61643;49.564;17.412;2023-03-21T01:19:18;13.73;;;8.45;;
73428;SDS011;61643;49.564;17.412;2023-03-21T01:21:45;13.35;;;8.25;;
73428;SDS011;61643;49.564;17.412;2023-03-21T01:24:11;15.82;;;8.70;;
73428;SDS011;61643;49.564;17.412;2023-03-21T01:26:37;16.30;;;8.43;;
73428;SDS011;61643;49.564;17.412;2023-03-21T01:29:03;16.05;;;8.20;;
73428;SDS011;61643;49.564;17.412;2023-03-21T01:31:30;13.40;;;7.78;;
73428;SDS011;61643;49.564;17.412;2023-03-21T01:33:56;15.45;;;7.97;;
73428;SDS011;61643;49.564;17.412;2023-03-21T01:36:23;14.93;;;7.78;;
73428;SDS011;61643;49.564;17.412;2023-03-21T01:38:50;13.20;;;7.50;;
73428;SDS011;61643;49.564;17.412;2023-03-21T01:41:24;11.90;;;7.47;;
73428;SDS011;61643;49.564;17.412;2023-03-21T01:43:52;14.70;;;7.93;;
73428;SDS011;61643;49.564;17.412;2023-03-21T01:46:38;12.57;;;7.47;;
73428;SDS011;61643;49.564;17.412;2023-03-21T01:51:56;14.57;;;7.63;;
73428;SDS011;61643;49.564;17.412;2023-03-21T01:54:28;12.10;;;7.65;;
73428;SDS011;61643;49.564;17.412;2023-03-21T01:57:00;12.23;;;7.57;;
73428;SDS011;61643;49.564;17.412;2023-03-21T01:59:30;13.15;;;7.38;;
73428;SDS011;61643;49.564;17.412;2023-03-21T02:02:06;12.88;;;7.72;;
73428;SDS011;61643;49.564;17.412;2023-03-21T02:04:36;12.77;;;7.53;;
73428;SDS011;61643;49.564;17.412;2023-03-21T02:07:04;12.55;;;7.65;;
73428;SDS011;61643;49.564;17.412;2023-03-21T02:09:40;13.20;;;7.70;;
73428;SDS011;61643;49.564;17.412;2023-03-21T02:12:08;10.35;;;6.78;;
73428;SDS011;61643;49.564;17.412;2023-03-21T02:14:35;14.35;;;7.35;;
73428;SDS011;61643;49.564;17.412;2023-03-21T02:27:53;11.85;;;6.93;;
73428;SDS011;61643;49.564;17.412;2023-03-21T02:33:29;10.98;;;6.82;;
73428;SDS011;61643;49.564;17.412;2023-03-21T02:39:01;13.38;;;6.90;;
73428;SDS011;61643;49.564;17.412;2023-03-21T02:41:49;12.52;;;6.88;;
73428;SDS011;61643;49.564;17.412;2023-03-21T02:44:37;10.85;;;6.85;;
73428;SDS011;61643;49.564;17.412;2023-03-21T02:50:14;13.25;;;7.30;;
73428;SDS011;61643;49.564;17.412;2023-03-21T02:52:46;12.25;;;7.00;;
73428;SDS011;61643;49.564;17.412;2023-03-21T02:55:15;14.88;;;7.32;;
73428;SDS011;61643;49.564;17.412;2023-03-21T02:57:44;13.27;;;7.03;;
73428;SDS011;61643;49.564;17.412;2023-03-21T03:00:16;9.75;;;6.57;;
73428;SDS011;61643;49.564;17.412;2023-03-21T03:02:45;11.02;;;6.88;;
73428;SDS011;61643;49.564;17.412;2023-03-21T03:05:13;11.20;;;6.63;;
73428;SDS011;61643;49.564;17.412;2023-03-21T03:11:04;10.90;;;6.75;;
73428;SDS011;61643;49.564;17.412;2023-03-21T03:16:11;11.30;;;7.18;;
73428;SDS011;61643;49.564;17.412;2023-03-21T03:19:01;11.85;;;6.93;;
73428;SDS011;61643;49.564;17.412;2023-03-21T03:29:31;11.48;;;7.22;;
73428;SDS011;61643;49.564;17.412;2023-03-21T03:32:04;13.40;;;7.43;;
73428;SDS011;61643;49.564;17.412;2023-03-21T03:34:35;11.20;;;7.28;;
73428;SDS011;61643;49.564;17.412;2023-03-21T03:37:06;12.98;;;7.78;;
73428;SDS011;61643;49.564;17.412;2023-03-21T03:39:37;11.57;;;7.32;;
73428;SDS011;61643;49.564;17.412;2023-03-21T03:45:07;15.90;;;8.75;;
73428;SDS011;61643;49.564;17.412;2023-03-21T03:50:41;15.88;;;8.52;;
73428;SDS011;61643;49.564;17.412;2023-03-21T03:53:22;16.33;;;8.27;;
73428;SDS011;61643;49.564;17.412;2023-03-21T03:55:53;20.25;;;9.05;;
73428;SDS011;61643;49.564;17.412;2023-03-21T03:58:21;15.88;;;9.32;;
73428;SDS011;61643;49.564;17.412;2023-03-21T04:00:50;14.32;;;8.95;;
73428;SDS011;61643;49.564;17.412;2023-03-21T04:03:17;14.75;;;8.35;;
73428;SDS011;61643;49.564;17.412;2023-03-21T04:05:43;13.40;;;8.52;;
73428;SDS011;61643;49.564;17.412;2023-03-21T04:08:11;14.35;;;8.48;;
73428;SDS011;61643;49.564;17.412;2023-03-21T04:10:39;18.33;;;9.80;;
73428;SDS011;61643;49.564;17.412;2023-03-21T04:13:08;17.45;;;10.18;;
73428;SDS011;61643;49.564;17.412;2023-03-21T04:15:35;15.63;;;7.47;;
73428;SDS011;61643;49.564;17.412;2023-03-21T04:18:01;10.57;;;7.20;;
73428;SDS011;61643;49.564;17.412;2023-03-21T04:20:27;12.93;;;7.78;;
73428;SDS011;61643;49.564;17.412;2023-03-21T04:22:54;13.55;;;7.68;;
73428;SDS011;61643;49.564;17.412;2023-03-21T04:25:20;14.65;;;7.85;;
73428;SDS011;61643;49.564;17.412;2023-03-21T04:27:46;11.88;;;7.40;;
73428;SDS011;61643;49.564;17.412;2023-03-21T04:30:13;12.43;;;7.78;;
73428;SDS011;61643;49.564;17.412;2023-03-21T04:32:40;11.80;;;7.70;;
73428;SDS011;61643;49.564;17.412;2023-03-21T04:35:07;12.85;;;7.82;;
73428;SDS011;61643;49.564;17.412;2023-03-21T04:37:35;11.52;;;7.45;;
73428;SDS011;61643;49.564;17.412;2023-03-21T04:40:03;14.07;;;7.68;;
73428;SDS011;61643;49.564;17.412;2023-03-21T04:42:32;17.23;;;7.60;;
73428;SDS011;61643;49.564;17.412;2023-03-21T04:44:59;11.43;;;7.35;;
73428;SDS011;61643;49.564;17.412;2023-03-21T04:47:26;13.18;;;7.85;;
73428;SDS011;61643;49.564;17.412;2023-03-21T04:49:52;13.50;;;8.20;;
73428;SDS011;61643;49.564;17.412;2023-03-21T04:52:18;15.88;;;8.40;;
73428;SDS011;61643;49.564;17.412;2023-03-21T04:54:44;15.57;;;8.88;;
73428;SDS011;61643;49.564;17.412;2023-03-21T04:57:11;13.52;;;8.18;;
73428;SDS011;61643;49.564;17.412;2023-03-21T04:59:37;12.35;;;8.15;;
73428;SDS011;61643;49.564;17.412;2023-03-21T05:02:03;14.45;;;8.73;;
73428;SDS011;61643;49.564;17.412;2023-03-21T05:04:29;15.02;;;8.60;;
73428;SDS011;61643;49.564;17.412;2023-03-21T05:06:56;15.43;;;9.20;;
73428;SDS011;61643;49.564;17.412;2023-03-21T05:09:23;15.65;;;8.77;;
73428;SDS011;61643;49.564;17.412;2023-03-21T05:11:49;16.33;;;9.20;;
73428;SDS011;61643;49.564;17.412;2023-03-21T05:14:17;16.42;;;9.43;;
73428;SDS011;61643;49.564;17.412;2023-03-21T05:16:45;13.27;;;8.15;;
73428;SDS011;61643;49.564;17.412;2023-03-21T05:19:20;14.85;;;8.38;;
73428;SDS011;61643;49.564;17.412;2023-03-21T05:22:01;13.10;;;8.80;;
73428;SDS011;61643;49.564;17.412;2023-03-21T05:24:33;18.67;;;9.68;;
73428;SDS011;61643;49.564;17.412;2023-03-21T05:27:01;14.35;;;8.73;;
73428;SDS011;61643;49.564;17.412;2023-03-21T05:29:28;17.48;;;9.38;;
73428;SDS011;61643;49.564;17.412;2023-03-21T05:31:56;17.27;;;9.35;;
73428;SDS011;61643;49.564;17.412;2023-03-21T05:34:22;16.10;;;9.80;;
73428;SDS011;61643;49.564;17.412;2023-03-21T05:36:50;15.88;;;9.25;;
73428;SDS011;61643;49.564;17.412;2023-03-21T05:39:16;16.20;;;10.52;;
73428;SDS011;61643;49.564;17.412;2023-03-21T05:41:42;15.18;;;9.52;;
73428;SDS011;61643;49.564;17.412;2023-03-21T05:44:08;21.13;;;10.30;;
73428;SDS011;61643;49.564;17.412;2023-03-21T05:46:34;17.33;;;9.95;;
73428;SDS011;61643;49.564;17.412;2023-03-21T05:49:00;17.38;;;8.75;;
73428;SDS011;61643;49.564;17.412;2023-03-21T05:51:26;17.27;;;9.90;;
73428;SDS011;61643;49.564;17.412;2023-03-21T05:53:52;16.00;;;9.68;;
73428;SDS011;61643;49.564;17.412;2023-03-21T05:56:18;15.65;;;9.40;;
73428;SDS011;61643;49.564;17.412;2023-03-21T05:58:44;16.35;;;9.95;;
73428;SDS011;61643;49.564;17.412;2023-03-21T06:01:11;16.95;;;10.05;;
73428;SDS011;61643;49.564;17.412;2023-03-21T06:03:37;16.63;;;10.02;;
73428;SDS011;61643;49.564;17.412;2023-03-21T06:06:03;16.05;;;8.90;;
73428;SDS011;61643;49.564;17.412;2023-03-21T06:08:29;14.25;;;8.70;;
73428;SDS011;61643;49.564;17.412;2023-03-21T06:10:56;16.23;;;9.45;;
73428;SDS011;61643;49.564;17.412;2023-03-21T06:13:22;17.60;;;9.80;;
73428;SDS011;61643;49.564;17.412;2023-03-21T06:15:48;16.80;;;10.07;;
73428;SDS011;61643;49.564;17.412;2023-03-21T06:18:14;17.38;;;9.07;;
73428;SDS011;61643;49.564;17.412;2023-03-21T06:20:40;13.77;;;8.43;;
73428;SDS011;61643;49.564;17.412;2023-03-21T06:23:06;15.65;;;8.88;;
73428;SDS011;61643;49.564;17.412;2023-03-21T06:25:32;14.55;;;8.38;;
73428;SDS011;61643;49.564;17.412;2023-03-21T06:27:58;15.20;;;9.05;;
73428;SDS011;61643;49.564;17.412;2023-03-21T06:30:24;13.43;;;8.00;;
73428;SDS011;61643;49.564;17.412;2023-03-21T06:32:50;15.88;;;8.55;;
73428;SDS011;61643;49.564;17.412;2023-03-21T06:35:17;13.95;;;8.05;;
73428;SDS011;61643;49.564;17.412;2023-03-21T06:37:43;13.38;;;8.02;;
73428;SDS011;61643;49.564;17.412;2023-03-21T06:40:10;13.27;;;7.97;;
73428;SDS011;61643;49.564;17.412;2023-03-21T06:42:38;11.85;;;7.30;;
73428;SDS011;61643;49.564;17.412;2023-03-21T06:45:04;11.85;;;7.07;;
73428;SDS011;61643;49.564;17.412;2023-03-21T06:47:31;14.88;;;7.45;;
73428;SDS011;61643;49.564;17.412;2023-03-21T06:49:57;13.18;;;8.18;;
73428;SDS011;61643;49.564;17.412;2023-03-21T06:52:22;14.52;;;7.80;;
73428;SDS011;61643;49.564;17.412;2023-03-21T06:54:48;18.98;;;8.98;;
73428;SDS011;61643;49.564;17.412;2023-03-21T06:57:15;22.45;;;9.55;;
73428;SDS011;61643;49.564;17.412;2023-03-21T06:59:42;19.10;;;9.15;;
73428;SDS011;61643;49.564;17.412;2023-03-21T07:02:09;13.95;;;8.40;;
73428;SDS011;61643;49.564;17.412;2023-03-21T07:04:35;12.77;;;7.35;;
73428;SDS011;61643;49.564;17.412;2023-03-21T07:07:01;16.67;;;8.80;;
73428;SDS011;61643;49.564;17.412;2023-03-21T07:09:27;14.40;;;7.65;;
73428;SDS011;61643;49.564;17.412;2023-03-21T07:11:53;17.65;;;8.10;;
73428;SDS011;61643;49.564;17.412;2023-03-21T07:14:19;13.45;;;8.15;;
73428;SDS011;61643;49.564;17.412;2023-03-21T07:16:45;16.63;;;7.80;;
73428;SDS011;61643;49.564;17.412;2023-03-21T07:19:11;42.00;;;17.42;;
73428;SDS011;61643;49.564;17.412;2023-03-21T07:21:37;26.20;;;12.48;;
73428;SDS011;61643;49.564;17.412;2023-03-21T07:24:03;16.17;;;8.23;;
73428;SDS011;61643;49.564;17.412;2023-03-21T07:26:29;15.07;;;7.50;;
73428;SDS011;61643;49.564;17.412;2023-03-21T07:28:55;14.15;;;8.15;;
73428;SDS011;61643;49.564;17.412;2023-03-21T07:31:21;15.20;;;8.45;;
73428;SDS011;61643;49.564;17.412;2023-03-21T07:33:52;15.95;;;8.23;;
73428;SDS011;61643;49.564;17.412;2023-03-21T07:36:18;15.52;;;9.15;;
73428;SDS011;61643;49.564;17.412;2023-03-21T07:38:44;13.50;;;8.02;;
73428;SDS011;61643;49.564;17.412;2023-03-21T07:41:11;14.75;;;9.07;;
73428;SDS011;61643;49.564;17.412;2023-03-21T07:43:37;15.52;;;8.60;;
73428;SDS011;61643;49.564;17.412;2023-03-21T07:46:04;15.80;;;9.02;;
73428;SDS011;61643;49.564;17.412;2023-03-21T07:48:30;16.70;;;8.65;;
73428;SDS011;61643;49.564;17.412;2023-03-21T07:50:56;18.77;;;10.38;;
73428;SDS011;61643;49.564;17.412;2023-03-21T07:53:22;17.30;;;9.95;;
73428;SDS011;61643;49.564;17.412;2023-03-21T07:55:51;17.23;;;9.63;;
73428;SDS011;61643;49.564;17.412;2023-03-21T07:58:24;17.48;;;9.98;;
73428;SDS011;61643;49.564;17.412;2023-03-21T08:00:51;17.83;;;9.57;;
73428;SDS011;61643;49.564;17.412;2023-03-21T08:03:17;17.88;;;9.85;;
73428;SDS011;61643;49.564;17.412;2023-03-21T08:05:43;17.90;;;9.93;;
73428;SDS011;61643;49.564;17.412;2023-03-21T08:08:11;19.33;;;9.77;;
73428;SDS011;61643;49.564;17.412;2023-03-21T08:10:37;16.55;;;9.43;;
73428;SDS011;61643;49.564;17.412;2023-03-21T08:13:03;16.33;;;9.60;;
73428;SDS011;61643;49.564;17.412;2023-03-21T08:15:29;18.55;;;10.73;;
73428;SDS011;61643;49.564;17.412;2023-03-21T08:17:55;20.30;;;10.23;;
73428;SDS011;61643;49.564;17.412;2023-03-21T08:20:22;18.15;;;10.05;;
73428;SDS011;61643;49.564;17.412;2023-03-21T08:22:48;19.98;;;9.95;;
73428;SDS011;61643;49.564;17.412;2023-03-21T08:25:16;20.00;;;10.38;;
73428;SDS011;61643;49.564;17.412;2023-03-21T08:27:44;18.02;;;10.05;;
73428;SDS011;61643;49.564;17.412;2023-03-21T08:30:12;18.83;;;10.80;;
73428;SDS011;61643;49.564;17.412;2023-03-21T08:32:40;18.23;;;10.20;;
73428;SDS011;61643;49.564;17.412;2023-03-21T08:35:07;19.80;;;11.07;;
73428;SDS011;61643;49.564;17.412;2023-03-21T08:37:38;18.58;;;10.35;;
73428;SDS011;61643;49.564;17.412;2023-03-21T08:40:06;19.38;;;10.43;;
73428;SDS011;61643;49.564;17.412;2023-03-21T08:42:44;16.52;;;10.27;;
73428;SDS011;61643;49.564;17.412;2023-03-21T08:45:11;17.98;;;10.52;;
73428;SDS011;61643;49.564;17.412;2023-03-21T08:47:39;16.33;;;9.70;;
73428;SDS011;61643;49.564;17.412;2023-03-21T08:50:06;19.73;;;10.55;;
73428;SDS011;61643;49.564;17.412;2023-03-21T08:52:33;18.65;;;10.32;;
73428;SDS011;61643;49.564;17.412;2023-03-21T08:54:59;16.52;;;9.13;;
73428;SDS011;61643;49.564;17.412;2023-03-21T08:57:27;17.08;;;9.85;;
73428;SDS011;61643;49.564;17.412;2023-03-21T08:59:53;16.92;;;9.75;;
73428;SDS011;61643;49.564;17.412;2023-03-21T09:02:19;19.33;;;10.45;;
73428;SDS011;61643;49.564;17.412;2023-03-21T09:04:45;18.73;;;10.07;;
73428;SDS011;61643;49.564;17.412;2023-03-21T09:07:12;19.17;;;10.68;;
73428;SDS011;61643;49.564;17.412;2023-03-21T09:09:39;15.80;;;10.07;;
73428;SDS011;61643;49.564;17.412;2023-03-21T09:12:06;23.58;;;11.27;;
73428;SDS011;61643;49.564;17.412;2023-03-21T09:14:32;18.25;;;9.88;;
73428;SDS011;61643;49.564;17.412;2023-03-21T09:16:59;16.75;;;9.32;;
73428;SDS011;61643;49.564;17.412;2023-03-21T09:19:25;18.10;;;10.25;;
73428;SDS011;61643;49.564;17.412;2023-03-21T09:21:52;23.15;;;10.25;;
73428;SDS011;61643;49.564;17.412;2023-03-21T09:24:20;19.20;;;9.45;;
73428;SDS011;61643;49.564;17.412;2023-03-21T09:26:46;14.15;;;8.63;;
73428;SDS011;61643;49.564;17.412;2023-03-21T09:29:15;15.40;;;8.88;;
73428;SDS011;61643;49.564;17.412;2023-03-21T09:31:43;14.05;;;9.02;;
73428;SDS011;61643;49.564;17.412;2023-03-21T09:34:11;13.10;;;8.65;;
73428;SDS011;61643;49.564;17.412;2023-03-21T09:36:40;13.88;;;8.68;;
73428;SDS011;61643;49.564;17.412;2023-03-21T09:39:09;13.13;;;8.25;;
73428;SDS011;61643;49.564;17.412;2023-03-21T09:41:40;13.63;;;7.82;;
73428;SDS011;61643;49.564;17.412;2023-03-21T09:47:15;15.38;;;8.60;;
73428;SDS011;61643;49.564;17.412;2023-03-21T09:49:58;14.63;;;9.52;;
73428;SDS011;61643;49.564;17.412;2023-03-21T09:55:32;14.05;;;8.30;;
73428;SDS011;61643;49.564;17.412;2023-03-21T10:00:53;13.38;;;8.20;;
73428;SDS011;61643;49.564;17.412;2023-03-21T10:03:28;11.95;;;7.78;;
73428;SDS011;61643;49.564;17.412;2023-03-21T10:05:59;13.82;;;8.25;;
73428;SDS011;61643;49.564;17.412;2023-03-21T10:08:34;16.77;;;10.20;;
73428;SDS011;61643;49.564;17.412;2023-03-21T10:11:17;16.52;;;8.70;;
73428;SDS011;61643;49.564;17.412;2023-03-21T10:13:50;11.52;;;8.07;;
73428;SDS011;61643;49.564;17.412;2023-03-21T10:16:51;13.38;;;8.75;;
73428;SDS011;61643;49.564;17.412;2023-03-21T10:19:21;12.52;;;8.10;;
73428;SDS011;61643;49.564;17.412;2023-03-21T10:21:48;13.80;;;8.88;;
73428;SDS011;61643;49.564;17.412;2023-03-21T10:26:46;14.75;;;8.43;;
73428;SDS011;61643;49.564;17.412;2023-03-21T10:29:15;11.70;;;7.78;;
73428;SDS011;61643;49.564;17.412;2023-03-21T10:31:43;12.13;;;8.25;;
73428;SDS011;61643;49.564;17.412;2023-03-21T10:34:18;23.33;;;11.07;;
73428;SDS011;61643;49.564;17.412;2023-03-21T10:36:51;14.52;;;8.23;;
73428;SDS011;61643;49.564;17.412;2023-03-21T10:41:58;13.73;;;8.27;;
73428;SDS011;61643;49.564;17.412;2023-03-21T10:44:34;13.57;;;8.95;;
73428;SDS011;61643;49.564;17.412;2023-03-21T10:47:05;11.50;;;7.05;;
73428;SDS011;61643;49.564;17.412;2023-03-21T10:49:33;13.63;;;6.82;;
73428;SDS011;61643;49.564;17.412;2023-03-21T10:52:02;11.30;;;7.35;;
73428;SDS011;61643;49.564;17.412;2023-03-21T10:54:32;11.98;;;7.75;;
73428;SDS011;61643;49.564;17.412;2023-03-21T10:57:13;11.70;;;7.82;;
73428;SDS011;61643;49.564;17.412;2023-03-21T10:59:44;9.80;;;6.18;;
73428;SDS011;61643;49.564;17.412;2023-03-21T11:02:35;8.88;;;5.75;;
73428;SDS011;61643;49.564;17.412;2023-03-21T11:05:03;10.40;;;6.40;;
73428;SDS011;61643;49.564;17.412;2023-03-21T11:07:41;9.90;;;6.45;;
73428;SDS011;61643;49.564;17.412;2023-03-21T11:10:12;9.38;;;5.80;;
73428;SDS011;61643;49.564;17.412;2023-03-21T11:12:40;8.48;;;5.85;;
73428;SDS011;61643;49.564;17.412;2023-03-21T11:17:56;10.73;;;6.60;;
73428;SDS011;61643;49.564;17.412;2023-03-21T11:20:23;10.95;;;6.25;;
73428;SDS011;61643;49.564;17.412;2023-03-21T11:22:49;8.30;;;5.53;;
73428;SDS011;61643;49.564;17.412;2023-03-21T11:25:21;9.93;;;6.45;;
73428;SDS011;61643;49.564;17.412;2023-03-21T11:28:00;9.30;;;6.20;;
73428;SDS011;61643;49.564;17.412;2023-03-21T11:30:31;9.48;;;6.10;;
73428;SDS011;61643;49.564;17.412;2023-03-21T11:33:00;10.43;;;6.93;;
73428;SDS011;61643;49.564;17.412;2023-03-21T11:35:34;11.05;;;7.13;;
73428;SDS011;61643;49.564;17.412;2023-03-21T11:38:02;13.43;;;7.28;;
73428;SDS011;61643;49.564;17.412;2023-03-21T11:40:31;12.52;;;8.02;;
73428;SDS011;61643;49.564;17.412;2023-03-21T11:45:54;10.15;;;6.88;;
73428;SDS011;61643;49.564;17.412;2023-03-21T11:48:23;13.07;;;7.25;;
73428;SDS011;61643;49.564;17.412;2023-03-21T11:50:50;12.50;;;7.20;;
73428;SDS011;61643;49.564;17.412;2023-03-21T12:06:46;8.82;;;5.30;;
73428;SDS011;61643;49.564;17.412;2023-03-21T12:12:05;8.18;;;5.40;;
73428;SDS011;61643;49.564;17.412;2023-03-21T12:14:53;8.73;;;5.40;;
73428;SDS011;61643;49.564;17.412;2023-03-21T12:20:13;9.05;;;5.65;;
73428;SDS011;61643;49.564;17.412;2023-03-21T12:31:12;12.52;;;6.50;;
73428;SDS011;61643;49.564;17.412;2023-03-21T12:36:20;13.27;;;6.55;;
73428;SDS011;61643;49.564;17.412;2023-03-21T12:44:35;10.57;;;6.47;;
73428;SDS011;61643;49.564;17.412;2023-03-21T12:47:14;10.68;;;6.50;;
73428;SDS011;61643;49.564;17.412;2023-03-21T12:49:50;8.48;;;5.57;;
73428;SDS011;61643;49.564;17.412;2023-03-21T12:52:23;9.95;;;6.15;;
73428;SDS011;61643;49.564;17.412;2023-03-21T12:54:56;8.68;;;5.80;;
73428;SDS011;61643;49.564;17.412;2023-03-21T12:57:32;9.55;;;5.47;;
73428;SDS011;61643;49.564;17.412;2023-03-21T13:00:22;10.88;;;5.70;;
73428;SDS011;61643;49.564;17.412;2023-03-21T13:03:01;10.30;;;5.53;;
73428;SDS011;61643;49.564;17.412;2023-03-21T13:05:34;9.65;;;5.63;;
73428;SDS011;61643;49.564;17.412;2023-03-21T13:08:06;10.23;;;6.07;;
73428;SDS011;61643;49.564;17.412;2023-03-21T13:10:39;8.68;;;5.45;;
73428;SDS011;61643;49.564;17.412;2023-03-21T13:18:43;8.90;;;5.40;;
73428;SDS011;61643;49.564;17.412;2023-03-21T13:21:14;9.13;;;5.70;;
73428;SDS011;61643;49.564;17.412;2023-03-21T13:24:16;6.40;;;5.10;;
73428;SDS011;61643;49.564;17.412;2023-03-21T13:26:48;10.05;;;6.03;;
73428;SDS011;61643;49.564;17.412;2023-03-21T13:29:31;9.15;;;5.22;;
73428;SDS011;61643;49.564;17.412;2023-03-21T13:32:05;9.13;;;5.30;;
73428;SDS011;61643;49.564;17.412;2023-03-21T13:34:58;8.77;;;6.22;;
73428;SDS011;61643;49.564;17.412;2023-03-21T13:37:39;9.38;;;5.45;;
73428;SDS011;61643;49.564;17.412;2023-03-21T13:40:28;9.07;;;5.80;;
73428;SDS011;61643;49.564;17.412;2023-03-21T13:43:01;7.47;;;5.00;;
73428;SDS011;61643;49.564;17.412;2023-03-21T13:48:43;9.63;;;5.43;;
73428;SDS011;61643;49.564;17.412;2023-03-21T13:56:25;9.90;;;4.88;;
73428;SDS011;61643;49.564;17.412;2023-03-21T13:58:57;6.90;;;5.05;;
73428;SDS011;61643;49.564;17.412;2023-03-21T14:06:34;7.45;;;5.15;;
73428;SDS011;61643;49.564;17.412;2023-03-21T14:09:16;7.47;;;5.57;;
73428;SDS011;61643;49.564;17.412;2023-03-21T14:11:46;6.75;;;5.10;;
73428;SDS011;61643;49.564;17.412;2023-03-21T14:14:13;7.78;;;5.00;;
73428;SDS011;61643;49.564;17.412;2023-03-21T14:16:40;7.80;;;5.22;;
73428;SDS011;61643;49.564;17.412;2023-03-21T14:19:08;8.50;;;5.60;;
73428;SDS011;61643;49.564;17.412;2023-03-21T14:21:36;8.02;;;5.50;;
73428;SDS011;61643;49.564;17.412;2023-03-21T14:24:03;8.68;;;5.18;;
73428;SDS011;61643;49.564;17.412;2023-03-21T14:26:35;8.55;;;5.32;;
73428;SDS011;61643;49.564;17.412;2023-03-21T14:29:05;7.82;;;5.20;;
73428;SDS011;61643;49.564;17.412;2023-03-21T14:31:34;7.65;;;5.20;;
73428;SDS011;61643;49.564;17.412;2023-03-21T14:34:00;7.03;;;5.00;;
73428;SDS011;61643;49.564;17.412;2023-03-21T14:36:29;7.78;;;5.68;;
73428;SDS011;61643;49.564;17.412;2023-03-21T14:41:47;8.18;;;5.72;;
73428;SDS011;61643;49.564;17.412;2023-03-21T14:44:25;7.50;;;5.50;;
73428;SDS011;61643;49.564;17.412;2023-03-21T14:47:02;9.90;;;5.47;;
73428;SDS011;61643;49.564;17.412;2023-03-21T14:49:29;11.27;;;5.50;;
73428;SDS011;61643;49.564;17.412;2023-03-21T14:51:59;7.88;;;5.18;;
73428;SDS011;61643;49.564;17.412;2023-03-21T14:54:27;10.27;;;6.30;;
73428;SDS011;61643;49.564;17.412;2023-03-21T14:56:56;11.35;;;6.80;;
73428;SDS011;61643;49.564;17.412;2023-03-21T14:59:25;9.73;;;6.00;;
73428;SDS011;61643;49.564;17.412;2023-03-21T15:01:56;11.23;;;6.65;;
73428;SDS011;61643;49.564;17.412;2023-03-21T15:04:24;8.48;;;5.95;;
73428;SDS011;61643;49.564;17.412;2023-03-21T15:06:52;8.77;;;6.20;;
73428;SDS011;61643;49.564;17.412;2023-03-21T15:09:25;8.20;;;5.88;;
73428;SDS011;61643;49.564;17.412;2023-03-21T15:11:53;12.60;;;6.30;;
73428;SDS011;61643;49.564;17.412;2023-03-21T15:14:28;9.35;;;5.97;;
73428;SDS011;61643;49.564;17.412;2023-03-21T15:16:59;11.40;;;6.43;;
73428;SDS011;61643;49.564;17.412;2023-03-21T15:19:36;10.07;;;6.63;;
73428;SDS011;61643;49.564;17.412;2023-03-21T15:22:15;10.77;;;6.93;;
73428;SDS011;61643;49.564;17.412;2023-03-21T15:27:18;10.07;;;6.68;;
73428;SDS011;61643;49.564;17.412;2023-03-21T15:29:49;11.27;;;7.03;;
73428;SDS011;61643;49.564;17.412;2023-03-21T15:32:23;10.13;;;6.90;;
73428;SDS011;61643;49.564;17.412;2023-03-21T15:34:53;12.38;;;6.55;;
73428;SDS011;61643;49.564;17.412;2023-03-21T15:37:22;19.75;;;9.52;;
73428;SDS011;61643;49.564;17.412;2023-03-21T15:39:51;14.88;;;8.95;;
73428;SDS011;61643;49.564;17.412;2023-03-21T15:42:28;12.25;;;7.28;;
73428;SDS011;61643;49.564;17.412;2023-03-21T15:45:00;9.38;;;6.38;;
73428;SDS011;61643;49.564;17.412;2023-03-21T15:47:34;12.13;;;7.60;;
73428;SDS011;61643;49.564;17.412;2023-03-21T15:50:15;10.13;;;6.68;;
73428;SDS011;61643;49.564;17.412;2023-03-21T15:52:49;11.18;;;7.25;;
73428;SDS011;61643;49.564;17.412;2023-03-21T15:55:17;8.05;;;4.97;;
73428;SDS011;61643;49.564;17.412;2023-03-21T16:02:46;10.48;;;6.07;;
73428;SDS011;61643;49.564;17.412;2023-03-21T16:05:22;9.95;;;6.80;;
73428;SDS011;61643;49.564;17.412;2023-03-21T16:07:48;11.15;;;7.18;;
73428;SDS011;61643;49.564;17.412;2023-03-21T16:10:34;11.95;;;7.97;;
73428;SDS011;61643;49.564;17.412;2023-03-21T16:13:01;16.60;;;10.25;;
73428;SDS011;61643;49.564;17.412;2023-03-21T16:15:28;18.50;;;10.38;;
73428;SDS011;61643;49.564;17.412;2023-03-21T16:17:58;12.30;;;8.23;;
73428;SDS011;61643;49.564;17.412;2023-03-21T16:20:26;20.55;;;10.48;;
73428;SDS011;61643;49.564;17.412;2023-03-21T16:22:57;20.20;;;11.05;;
73428;SDS011;61643;49.564;17.412;2023-03-21T16:25:23;20.13;;;10.82;;
73428;SDS011;61643;49.564;17.412;2023-03-21T16:27:49;22.05;;;11.52;;
73428;SDS011;61643;49.564;17.412;2023-03-21T16:30:17;30.85;;;15.35;;
73428;SDS011;61643;49.564;17.412;2023-03-21T16:32:45;32.00;;;17.58;;
73428;SDS011;61643;49.564;17.412;2023-03-21T16:35:12;27.40;;;12.98;;
73428;SDS011;61643;49.564;17.412;2023-03-21T16:37:38;24.90;;;12.77;;
73428;SDS011;61643;49.564;17.412;2023-03-21T16:40:15;25.58;;;12.98;;
73428;SDS011;61643;49.564;17.412;2023-03-21T16:42:50;28.42;;;15.20;;
73428;SDS011;61643;49.564;17.412;2023-03-21T16:45:16;24.83;;;12.73;;